Time;durP1;ratioP1;P1;durP2;ratioP2;P2;SDS_P1;SDS_P2;PMS_P1;PMS_P2;Temp;Humidity;BMP_temperature;BMP_pressure;BME280_temperature;BME280_humidity;BME280_pressure;Samples;Min_cycle;Max_cycle;Signal;HPM_P1;HPM_P2
2023/07/21 00:00:50;;;;;;;9.00;6.10;;;;;;;23.93;100.00;101002.53;2088754;28;20188;-67
2023/07/21 00:01:51;;;;;;;7.80;6.33;;;;;;;23.93;100.00;101006.16;2081407;28;20662;-67
2023/07/21 00:02:52;;;;;;;7.33;6.40;;;;;;;23.14;100.00;100892.63;2082204;28;20196;-66
2023/07/21 00:03:52;;;;;;;7.77;6.30;;;;;;;23.81;100.00;101000.97;2089482;28;20237;-66
2023/07/21 00:04:53;;;;;;;7.10;6.33;;;;;;;23.79;100.00;101009.97;2081502;28;20642;-66
2023/07/21 00:05:54;;;;;;;7.27;6.53;;;;;;;23.23;100.00;100942.56;2081339;28;20651;-66
2023/07/21 00:06:54;;;;;;;7.17;6.47;;;;;;;23.64;100.00;100998.13;2081428;28;20529;-66
2023/07/21 00:07:55;;;;;;;8.50;6.20;;;;;;;23.70;100.00;101004.56;2085178;28;20280;-66
2023/07/21 00:08:56;;;;;;;7.37;6.53;;;;;;;23.69;100.00;101008.69;2087288;28;20175;-68
2023/07/21 00:09:59;;;;;;;7.13;6.10;;;;;;;23.68;100.00;101000.69;2081416;28;20201;-66
2023/07/21 00:10:59;;;;;;;11.10;5.90;;;;;;;23.69;100.00;101013.59;2081189;28;20165;-66
2023/07/21 00:12:00;;;;;;;10.17;6.43;;;;;;;23.70;100.00;101006.63;2089674;28;20669;-67
2023/07/21 00:13:00;;;;;;;8.63;6.73;;;;;;;23.62;100.00;100997.09;2089364;28;20172;-66
2023/07/21 00:14:01;;;;;;;9.67;6.80;;;;;;;23.73;100.00;101006.38;2083161;28;20181;-66
2023/07/21 00:15:02;;;;;;;8.37;6.60;;;;;;;23.73;100.00;101011.25;2080929;28;20208;-67
2023/07/21 00:16:04;;;;;;;10.30;7.00;;;;;;;23.74;100.00;101012.81;2081019;28;20262;-67
2023/07/21 00:17:05;;;;;;;8.30;6.80;;;;;;;23.73;100.00;101014.84;2081352;28;20263;-66
2023/07/21 00:18:05;;;;;;;10.67;6.63;;;;;;;23.72;100.00;101006.88;2082154;28;20201;-66
2023/07/21 00:19:09;;;;;;;10.53;7.33;;;;;;;23.68;100.00;101012.78;2089373;28;20218;-66
2023/07/21 00:20:12;;;;;;;7.50;6.37;;;;;;;23.64;100.00;101009.44;2081323;28;20185;-67
2023/07/21 00:21:12;;;;;;;10.80;6.53;;;;;;;23.56;100.00;101002.75;2081114;28;20187;-66
2023/07/21 00:22:13;;;;;;;7.33;6.00;;;;;;;23.53;100.00;101003.00;2081393;28;20188;-67
2023/07/21 00:23:14;;;;;;;7.47;6.53;;;;;;;23.08;100.00;100939.16;2086270;28;20666;-66
2023/07/21 00:24:14;;;;;;;7.43;6.30;;;;;;;23.49;100.00;101010.97;2089610;28;20267;-67
2023/07/21 00:25:15;;;;;;;6.97;6.27;;;;;;;23.50;100.00;101006.88;2089533;28;20210;-67
2023/07/21 00:26:16;;;;;;;7.80;6.43;;;;;;;23.48;100.00;101007.38;2088086;28;20179;-66
2023/07/21 00:27:17;;;;;;;8.10;6.30;;;;;;;23.47;100.00;101013.53;2081327;28;20203;-67
2023/07/21 00:28:20;;;;;;;9.73;6.60;;;;;;;23.47;100.00;101000.19;2073371;28;20206;-67
2023/07/21 00:29:20;;;;;;;7.10;6.10;;;;;;;23.49;100.00;101011.75;2080250;28;20184;-67
2023/07/21 00:30:22;;;;;;;8.83;6.60;;;;;;;22.74;100.00;100892.31;2081016;28;20187;-67
2023/07/21 00:31:22;;;;;;;7.47;6.30;;;;;;;22.66;100.00;100875.09;2085043;28;20184;-66
2023/07/21 00:32:22;;;;;;;8.90;6.47;;;;;;;23.41;100.00;100984.47;2089358;28;20259;-66
2023/07/21 00:33:25;;;;;;;11.90;7.53;;;;;;;23.27;100.00;100969.28;2089460;28;20176;-66
2023/07/21 00:34:25;;;;;;;13.70;7.70;;;;;;;23.51;100.00;101011.22;2089179;28;20253;-66
2023/07/21 00:35:26;;;;;;;10.93;6.93;;;;;;;23.53;100.00;101008.66;2089495;28;20232;-66
2023/07/21 00:36:26;;;;;;;11.47;6.90;;;;;;;23.51;100.00;101009.19;2081872;28;20177;-66
2023/07/21 00:37:27;;;;;;;10.13;7.17;;;;;;;23.51;100.00;101002.75;2081185;28;20193;-66
2023/07/21 00:38:27;;;;;;;8.87;7.37;;;;;;;23.52;100.00;101013.56;2080930;28;20201;-66
2023/07/21 00:39:28;;;;;;;7.97;6.80;;;;;;;23.54;100.00;101010.22;2080518;28;20756;-66
2023/07/21 00:40:30;;;;;;;8.50;6.90;;;;;;;23.53;100.00;101006.59;2077410;28;20189;-66
2023/07/21 00:41:30;;;;;;;8.77;7.20;;;;;;;23.47;100.00;100991.69;2074415;28;20166;-66
2023/07/21 00:42:31;;;;;;;9.93;6.97;;;;;;;23.55;100.00;101003.28;2080465;28;20169;-66
2023/07/21 00:43:32;;;;;;;10.23;6.80;;;;;;;23.49;100.00;100999.66;2073172;28;20185;-66
2023/07/21 00:44:36;;;;;;;9.10;6.77;;;;;;;23.53;100.00;101000.16;2079598;28;20327;-67
2023/07/21 00:45:39;;;;;;;9.57;6.90;;;;;;;23.46;100.00;100981.66;2081065;28;20315;-67
2023/07/21 00:46:40;;;;;;;9.63;6.63;;;;;;;23.51;100.00;100991.44;2081088;28;20185;-66
2023/07/21 00:47:42;;;;;;;7.40;6.50;;;;;;;23.51;100.00;100992.22;2081079;28;20659;-67
2023/07/21 00:48:43;;;;;;;11.03;7.00;;;;;;;23.48;100.00;100990.41;2076869;28;20188;-67
2023/07/21 00:49:44;;;;;;;8.43;6.50;;;;;;;23.17;100.00;100951.00;2079663;28;20176;-66
2023/07/21 00:50:50;;;;;;;7.67;6.57;;;;;;;23.39;100.00;100987.81;2089465;28;20176;-67
2023/07/21 00:51:51;;;;;;;8.17;6.30;;;;;;;23.42;100.00;100986.78;2089496;28;20615;-66
2023/07/21 00:52:52;;;;;;;6.70;6.00;;;;;;;23.42;100.00;100978.31;2088724;28;20176;-66
2023/07/21 00:53:52;;;;;;;8.43;6.10;;;;;;;23.42;100.00;100978.31;2081267;28;20204;-66
2023/07/21 00:54:53;;;;;;;6.40;5.50;;;;;;;22.76;100.00;100886.91;2076647;28;20268;-66
2023/07/21 00:55:53;;;;;;;7.37;5.60;;;;;;;23.28;100.00;100978.56;2073028;28;20249;-66
2023/07/21 00:56:54;;;;;;;7.30;6.00;;;;;;;23.30;100.00;100984.47;2073121;28;20170;-66
2023/07/21 00:57:54;;;;;;;8.63;6.17;;;;;;;23.29;100.00;100977.25;2077096;28;20181;-67
2023/07/21 00:58:55;;;;;;;7.93;6.23;;;;;;;23.34;100.00;100980.09;2081134;28;20173;-67
2023/07/21 00:59:55;;;;;;;8.00;6.70;;;;;;;23.34;100.00;100985.75;2081303;28;20189;-67
2023/07/21 01:00:55;;;;;;;9.43;6.57;;;;;;;23.31;100.00;100994.47;2081092;28;20226;-67
2023/07/21 01:01:56;;;;;;;7.80;6.37;;;;;;;23.29;100.00;100982.91;2081182;28;20235;-67
2023/07/21 01:02:57;;;;;;;7.90;6.23;;;;;;;23.33;100.00;100995.50;2080969;28;20186;-66
2023/07/21 01:03:58;;;;;;;6.57;5.87;;;;;;;23.33;100.00;100983.44;2081320;28;20272;-66
2023/07/21 01:05:01;;;;;;;10.20;6.30;;;;;;;23.34;100.00;100987.81;2082541;28;20188;-66
2023/07/21 01:06:03;;;;;;;10.07;6.37;;;;;;;23.38;100.00;100977.03;2082642;28;20293;-66
2023/07/21 01:07:06;;;;;;;10.03;6.70;;;;;;;23.41;100.00;100985.25;2082407;28;20188;-66
2023/07/21 01:08:07;;;;;;;8.50;6.47;;;;;;;23.44;100.00;100987.03;2082671;28;20696;-66
2023/07/21 01:09:09;;;;;;;11.03;6.90;;;;;;;23.40;100.00;100978.06;2082416;28;20177;-66
2023/07/21 01:10:11;;;;;;;9.67;6.53;;;;;;;23.38;100.00;100982.69;2082613;28;20173;-66
2023/07/21 01:11:13;;;;;;;8.33;6.20;;;;;;;23.42;100.00;100980.34;2082507;28;20226;-66
2023/07/21 01:12:13;;;;;;;9.70;6.50;;;;;;;23.43;100.00;100985.50;2082665;28;20263;-66
2023/07/21 01:13:16;;;;;;;9.17;6.20;;;;;;;23.44;100.00;100972.91;2082285;28;20647;-66
2023/07/21 01:14:17;;;;;;;6.87;6.03;;;;;;;23.51;100.00;100980.13;2082388;28;20188;-66
2023/07/21 01:15:18;;;;;;;6.87;5.97;;;;;;;23.52;100.00;100988.09;2082433;28;20204;-66
2023/07/21 01:16:20;;;;;;;7.47;6.40;;;;;;;23.54;100.00;100982.69;2089967;28;20190;-66
2023/07/21 01:17:21;;;;;;;12.00;6.50;;;;;;;22.67;100.00;100844.78;2093046;28;20241;-67
2023/07/21 01:18:22;;;;;;;7.43;6.50;;;;;;;23.59;100.00;100986.81;2088485;28;20287;-66
2023/07/21 01:19:25;;;;;;;8.20;6.37;;;;;;;23.59;100.00;100989.66;2083318;28;20173;-66
2023/07/21 01:20:27;;;;;;;9.77;6.30;;;;;;;23.58;100.00;100994.53;2089853;28;20185;-66
2023/07/21 01:21:37;;;;;;;8.83;6.07;;;;;;;23.62;100.00;100992.22;2082043;28;20181;-67
2023/07/21 01:23:11;;;;;;;7.17;6.47;;;;;;;23.64;100.00;100983.22;2082521;28;20176;-66
2023/07/21 01:24:58;;;;;;;8.83;6.43;;;;;;;23.62;100.00;100980.91;2075374;28;20225;-67
2023/07/21 01:26:00;;;;;;;8.87;6.40;;;;;;;23.67;100.00;100985.00;2081673;28;20213;-66
2023/07/21 01:27:02;;;;;;;9.07;6.20;;;;;;;23.67;100.00;100985.00;2082259;28;20189;-66
2023/07/21 01:28:04;;;;;;;10.97;6.17;;;;;;;23.66;100.00;100978.59;2082315;28;20213;-66
2023/07/21 01:29:08;;;;;;;11.33;6.60;;;;;;;23.34;100.00;100951.81;2082146;28;20193;-67
2023/07/21 01:30:11;;;;;;;9.00;6.30;;;;;;;23.50;100.00;100961.59;2082399;28;20169;-67
2023/07/21 01:31:13;;;;;;;7.70;6.27;;;;;;;23.65;100.00;100977.03;2083299;28;20180;-66
2023/07/21 01:32:18;;;;;;;7.33;6.00;;;;;;;23.66;100.00;100975.75;2090758;28;20172;-66
2023/07/21 01:33:20;;;;;;;10.40;6.27;;;;;;;22.99;100.00;100880.81;2090714;28;20635;-66
2023/07/21 01:34:22;;;;;;;7.87;5.97;;;;;;;23.62;100.00;100978.06;2074799;28;20190;-66
2023/07/21 01:35:28;;;;;;;6.80;6.10;;;;;;;23.63;100.00;100988.09;2073684;28;20239;-67
2023/07/21 01:36:30;;;;;;;10.43;6.60;;;;;;;23.59;100.00;100979.09;2079047;28;20177;-66
2023/07/21 01:37:32;;;;;;;8.13;6.23;;;;;;;23.12;100.00;100917.03;2086343;28;20188;-67
2023/07/21 01:38:34;;;;;;;7.77;6.00;;;;;;;23.49;100.00;100982.69;2087260;28;20209;-66
2023/07/21 01:39:36;;;;;;;6.80;6.10;;;;;;;23.45;100.00;100980.13;2092090;28;20187;-66
2023/07/21 01:40:39;;;;;;;7.00;6.30;;;;;;;23.41;100.00;100982.44;2090551;28;20176;-67
2023/07/21 01:41:40;;;;;;;9.03;6.60;;;;;;;22.36;100.00;100830.81;2082273;28;20185;-66
2023/07/21 01:42:42;;;;;;;11.07;6.63;;;;;;;23.10;100.00;100962.81;2081802;28;20208;-67
2023/07/21 01:43:44;;;;;;;9.70;6.30;;;;;;;23.24;100.00;100998.56;2081568;28;20250;-67
2023/07/21 01:44:46;;;;;;;7.40;6.30;;;;;;;23.19;100.00;100981.63;2080237;28;20185;-67
2023/07/21 01:45:48;;;;;;;7.00;6.30;;;;;;;22.66;100.00;100911.81;2082254;28;20193;-67
2023/07/21 01:46:49;;;;;;;9.87;6.97;;;;;;;22.48;100.00;100895.31;2082307;28;20177;-66
2023/07/21 01:47:49;;;;;;;7.23;6.53;;;;;;;23.07;100.00;100994.13;2085400;28;20258;-66
2023/07/21 01:48:50;;;;;;;8.20;6.60;;;;;;;23.07;100.00;100986.44;2088298;28;20641;-66
2023/07/21 01:49:51;;;;;;;8.90;7.23;;;;;;;23.07;100.00;100985.66;2082353;28;20626;-67
2023/07/21 01:50:54;;;;;;;11.23;7.07;;;;;;;23.06;100.00;100982.06;2082376;28;20607;-67
2023/07/21 01:51:58;;;;;;;11.20;7.10;;;;;;;23.02;100.00;100987.19;2074246;28;20173;-66
2023/07/21 01:53:03;;;;;;;9.13;7.47;;;;;;;23.07;100.00;100983.59;2081296;28;20212;-67
2023/07/21 01:54:07;;;;;;;7.63;6.47;;;;;;;23.10;100.00;100982.59;2082115;28;20192;-66
2023/07/21 01:55:14;;;;;;;9.50;6.73;;;;;;;23.07;100.00;100985.66;2077445;28;20181;-66
2023/07/21 01:56:30;;;;;;;8.30;6.70;;;;;;;23.07;100.00;100988.47;2078121;28;20780;-67
2023/07/21 01:57:34;;;;;;;9.47;6.60;;;;;;;23.02;100.00;100989.25;2082303;28;20177;-66
2023/07/21 01:58:38;;;;;;;7.90;6.50;;;;;;;22.97;100.00;100990.00;2078793;28;20296;-67
2023/07/21 01:59:42;;;;;;;9.77;7.17;;;;;;;22.33;100.00;100903.19;2076219;28;20647;-67
2023/07/21 02:00:45;;;;;;;11.30;7.07;;;;;;;22.90;100.00;100990.47;2082557;28;20179;-67
2023/07/21 02:01:47;;;;;;;8.50;7.13;;;;;;;21.93;100.00;100835.75;2090598;28;20191;-66
2023/07/21 02:02:49;;;;;;;9.67;7.20;;;;;;;22.90;100.00;100991.25;2090482;28;20184;-66
2023/07/21 02:03:50;;;;;;;9.50;6.83;;;;;;;22.85;100.00;100983.53;2082499;28;20185;-67
2023/07/21 02:04:51;;;;;;;9.33;6.97;;;;;;;22.80;100.00;100989.94;2082113;28;20192;-66
2023/07/21 02:05:52;;;;;;;7.63;6.70;;;;;;;22.78;100.00;100981.19;2082025;28;20189;-66
2023/07/21 02:06:52;;;;;;;8.90;6.87;;;;;;;22.77;100.00;100985.28;2082197;28;20177;-66
2023/07/21 02:07:53;;;;;;;9.67;6.73;;;;;;;22.83;100.00;100982.50;2082084;28;20180;-66
2023/07/21 02:08:54;;;;;;;9.20;7.20;;;;;;;22.69;100.00;100972.16;2081694;28;20254;-66
2023/07/21 02:09:54;;;;;;;8.40;6.90;;;;;;;22.84;100.00;100984.03;2090560;28;20177;-66
2023/07/21 02:10:55;;;;;;;7.87;6.50;;;;;;;22.86;100.00;100982.25;2083002;28;20188;-67
2023/07/21 02:11:55;;;;;;;9.13;6.70;;;;;;;22.86;100.00;100965.31;2082114;28;20185;-66
2023/07/21 02:12:56;;;;;;;7.10;6.40;;;;;;;22.96;100.00;100983.56;2086138;28;20188;-66
2023/07/21 02:13:57;;;;;;;9.97;6.77;;;;;;;22.68;100.00;100951.59;2087259;28;20534;-66
2023/07/21 02:14:57;;;;;;;8.77;6.60;;;;;;;23.00;100.00;100988.97;2082055;28;20169;-66
2023/07/21 02:15:58;;;;;;;9.03;6.23;;;;;;;23.03;100.00;100990.81;2081530;28;20177;-67
2023/07/21 02:16:58;;;;;;;8.63;6.93;;;;;;;23.04;100.00;100981.03;2074013;28;20189;-66
2023/07/21 02:17:59;;;;;;;8.33;6.53;;;;;;;23.04;100.00;100981.03;2073927;28;20177;-66
2023/07/21 02:19:00;;;;;;;8.10;6.67;;;;;;;23.06;100.00;100982.06;2073843;28;20260;-66
2023/07/21 02:20:03;;;;;;;10.20;7.10;;;;;;;22.96;100.00;100954.53;2077358;28;20550;-66
2023/07/21 02:21:04;;;;;;;8.07;6.20;;;;;;;23.13;100.00;100984.38;2081932;28;20638;-66
2023/07/21 02:22:04;;;;;;;8.63;6.60;;;;;;;22.56;100.00;100898.44;2082230;28;20189;-66
2023/07/21 02:23:05;;;;;;;7.63;6.33;;;;;;;23.18;100.00;100986.47;2089740;28;20582;-66
2023/07/21 02:24:06;;;;;;;9.50;6.80;;;;;;;23.22;100.00;100997.53;2089823;28;20180;-66
2023/07/21 02:25:12;;;;;;;7.50;6.70;;;;;;;23.23;100.00;100994.22;2088883;28;20227;-66
2023/07/21 02:26:13;;;;;;;7.97;5.90;;;;;;;;;;2083216;28;20715;-66
2023/07/21 02:27:13;;;;;;;7.10;6.40;;;;;;;23.15;100.00;100983.88;2082071;28;20561;-67
2023/07/21 02:28:14;;;;;;;8.37;6.43;;;;;;;23.22;100.00;100995.50;2086211;28;20177;-66
2023/07/21 02:29:14;;;;;;;9.50;6.20;;;;;;;23.24;100.00;100995.00;2081908;28;20199;-66
2023/07/21 02:30:15;;;;;;;7.80;6.30;;;;;;;23.23;100.00;100999.88;2082108;28;20583;-66
2023/07/21 02:31:16;;;;;;;8.47;6.20;;;;;;;22.86;100.00;100945.53;2082475;28;20184;-67
2023/07/21 02:32:16;;;;;;;8.13;6.07;;;;;;;23.26;100.00;101006.56;2090306;28;20263;-66
2023/07/21 02:33:17;;;;;;;9.23;6.60;;;;;;;23.29;100.00;101011.19;2090319;28;20646;-66
2023/07/21 02:34:17;;;;;;;7.40;6.23;;;;;;;23.33;100.00;101014.56;2083591;28;20185;-66
2023/07/21 02:35:18;;;;;;;10.90;6.30;;;;;;;22.63;100.00;100897.94;2082105;28;20264;-66
2023/07/21 02:36:18;;;;;;;7.23;6.03;;;;;;;23.34;100.00;101008.38;2085649;28;20203;-66
2023/07/21 02:37:19;;;;;;;7.07;6.37;;;;;;;23.36;100.00;101016.34;2090183;28;20188;-66
2023/07/21 02:38:19;;;;;;;8.57;6.33;;;;;;;23.35;100.00;101017.63;2084834;28;20244;-67
2023/07/21 02:39:20;;;;;;;10.70;6.50;;;;;;;23.36;100.00;101019.97;2081987;28;20177;-66
2023/07/21 02:40:20;;;;;;;7.73;6.37;;;;;;;23.33;100.00;101006.81;2073693;28;20269;-67
2023/07/21 02:41:21;;;;;;;8.80;6.40;;;;;;;23.41;100.00;101021.25;2080852;28;20247;-66
2023/07/21 02:42:21;;;;;;;9.10;6.03;;;;;;;23.41;100.00;101026.91;2081746;28;20193;-66
2023/07/21 02:43:23;;;;;;;9.70;5.83;;;;;;;23.40;100.00;101023.31;2081794;28;20671;-66
2023/07/21 02:44:23;;;;;;;8.77;6.30;;;;;;;23.39;100.00;101026.66;2081906;28;20177;-67
2023/07/21 02:45:24;;;;;;;9.07;6.30;;;;;;;23.33;100.00;101020.97;2081547;28;20710;-67
2023/07/21 02:46:24;;;;;;;8.27;6.30;;;;;;;23.19;100.00;101001.41;2082035;28;20187;-66
2023/07/21 02:47:26;;;;;;;10.57;6.33;;;;;;;22.82;100.00;100961.94;2089241;28;20278;-67
2023/07/21 02:48:28;;;;;;;8.50;6.23;;;;;;;23.06;100.00;100996.19;2083395;28;20267;-66
2023/07/21 02:49:30;;;;;;;7.40;5.70;;;;;;;23.24;100.00;101029.69;2087663;28;20219;-67
2023/07/21 02:50:31;;;;;;;7.23;5.70;;;;;;;22.52;100.00;100937.44;2090103;28;20192;-67
2023/07/21 02:51:32;;;;;;;8.17;6.10;;;;;;;23.10;100.00;101032.69;2086393;28;20271;-66
2023/07/21 02:52:32;;;;;;;6.60;5.50;;;;;;;23.02;100.00;101028.84;2081844;28;20260;-67
2023/07/21 02:53:33;;;;;;;7.40;5.70;;;;;;;22.97;100.00;101024.69;2081782;28;20181;-66
2023/07/21 02:54:33;;;;;;;11.23;6.00;;;;;;;23.07;100.00;101028.06;2081915;28;20260;-66
2023/07/21 02:55:34;;;;;;;7.50;6.10;;;;;;;22.78;100.00;100994.56;2081927;28;20181;-67
2023/07/21 02:56:34;;;;;;;9.77;6.40;;;;;;;23.02;100.00;101029.59;2088814;28;20200;-66
2023/07/21 02:57:36;;;;;;;8.37;6.23;;;;;;;23.02;100.00;101023.94;2084239;28;20267;-66
2023/07/21 02:58:36;;;;;;;10.27;6.60;;;;;;;23.00;100.00;101029.34;2081640;28;20221;-66
2023/07/21 02:59:37;;;;;;;9.20;6.40;;;;;;;22.99;100.00;101027.00;2081865;28;20177;-66
2023/07/21 03:00:38;;;;;;;9.80;6.20;;;;;;;22.98;100.00;101048.84;2081519;28;20181;-66
2023/07/21 03:01:39;;;;;;;7.57;6.30;;;;;;;22.99;100.00;101038.31;2081672;28;20705;-66
2023/07/21 03:02:41;;;;;;;10.20;5.87;;;;;;;22.99;100.00;101032.66;2081832;28;20568;-66
2023/07/21 03:03:41;;;;;;;9.70;6.57;;;;;;;22.66;100.00;100982.44;2088939;28;20196;-67
2023/07/21 03:04:42;;;;;;;9.60;6.90;;;;;;;22.99;100.00;101036.28;2083848;28;20185;-66
2023/07/21 03:05:43;;;;;;;8.77;6.40;;;;;;;22.97;100.00;101033.16;2086185;28;20203;-66
2023/07/21 03:06:43;;;;;;;10.80;6.73;;;;;;;22.97;100.00;101033.16;2086112;28;20188;-66
2023/07/21 03:07:43;;;;;;;10.70;6.70;;;;;;;22.93;100.00;101031.88;2075707;28;20212;-66
2023/07/21 03:08:44;;;;;;;8.50;6.63;;;;;;;22.88;100.00;101033.38;2081505;28;20173;-67
2023/07/21 03:09:44;;;;;;;9.20;7.17;;;;;;;22.83;100.00;101031.28;2081789;28;20181;-66
2023/07/21 03:10:45;;;;;;;7.67;6.70;;;;;;;22.79;100.00;101038.47;2089228;28;20303;-67
2023/07/21 03:11:45;;;;;;;7.47;6.67;;;;;;;22.79;100.00;101036.44;2089412;28;20238;-67
2023/07/21 03:12:46;;;;;;;7.70;7.00;;;;;;;22.80;100.00;101037.19;2081733;28;20220;-66
2023/07/21 03:13:46;;;;;;;11.13;6.77;;;;;;;22.78;100.00;101039.75;2084055;28;20207;-67
2023/07/21 03:14:48;;;;;;;8.30;6.90;;;;;;;22.79;100.00;101044.91;2088225;28;20685;-66
2023/07/21 03:15:49;;;;;;;7.97;6.70;;;;;;;22.82;100.00;101040.31;2081580;28;20180;-67
2023/07/21 03:16:50;;;;;;;8.67;6.70;;;;;;;22.86;100.00;101043.63;2081747;28;20176;-66
2023/07/21 03:17:50;;;;;;;7.67;6.90;;;;;;;22.86;100.00;101049.28;2081745;28;20643;-66
2023/07/21 03:18:50;;;;;;;8.10;6.83;;;;;;;22.85;100.00;101042.09;2081424;28;20746;-66
2023/07/21 03:19:51;;;;;;;7.93;6.77;;;;;;;22.85;100.00;101040.06;2081511;28;20589;-66
2023/07/21 03:20:57;;;;;;;8.97;6.70;;;;;;;22.89;100.00;101037.78;2081741;28;20181;-67
2023/07/21 03:21:57;;;;;;;12.17;7.00;;;;;;;22.93;100.00;101037.53;2081660;28;20164;-66
2023/07/21 03:22:58;;;;;;;8.23;7.00;;;;;;;22.94;100.00;101041.88;2081542;28;20180;-66
2023/07/21 03:23:58;;;;;;;8.77;6.97;;;;;;;22.87;100.00;101031.84;2081605;28;20185;-66
2023/07/21 03:24:59;;;;;;;8.73;6.60;;;;;;;22.96;100.00;101045.75;2081323;28;20189;-66
2023/07/21 03:25:59;;;;;;;9.57;6.63;;;;;;;22.96;100.00;101045.75;2075773;28;20212;-66
2023/07/21 03:27:01;;;;;;;7.93;7.13;;;;;;;22.98;100.00;101048.09;2077798;28;20672;-67
2023/07/21 03:28:02;;;;;;;9.30;7.33;;;;;;;22.97;100.00;101050.13;2080780;28;20181;-66
2023/07/21 03:29:03;;;;;;;12.83;7.10;;;;;;;22.97;100.00;101047.28;2081293;28;20170;-66
2023/07/21 03:30:08;;;;;;;7.73;6.93;;;;;;;22.99;100.00;101046.78;2081696;28;20200;-66
2023/07/21 03:31:11;;;;;;;7.53;6.73;;;;;;;22.99;100.00;101046.78;2073340;28;20228;-66
2023/07/21 03:32:12;;;;;;;8.60;6.37;;;;;;;23.02;100.00;101057.09;2081066;28;20191;-66
2023/07/21 03:33:12;;;;;;;9.53;7.00;;;;;;;22.74;100.00;101011.75;2081451;28;20745;-66
2023/07/21 03:34:13;;;;;;;8.00;6.40;;;;;;;23.07;100.00;101040.13;2081499;28;20647;-66
2023/07/21 03:35:14;;;;;;;9.83;6.70;;;;;;;23.10;100.00;101046.84;2081388;28;20185;-66
2023/07/21 03:36:15;;;;;;;9.10;6.77;;;;;;;23.13;100.00;101037.34;2081407;28;20220;-66
2023/07/21 03:37:15;;;;;;;7.63;6.63;;;;;;;23.10;100.00;101039.13;2080761;28;20943;-66
2023/07/21 03:38:16;;;;;;;10.20;6.87;;;;;;;23.02;100.00;101042.97;2073315;28;20208;-66
2023/07/21 03:39:16;;;;;;;9.13;7.07;;;;;;;23.00;100.00;101042.69;2080899;28;20243;-66
2023/07/21 03:40:17;;;;;;;7.57;6.77;;;;;;;23.04;100.00;101048.88;2086889;28;20266;-66
2023/07/21 03:41:17;;;;;;;7.67;6.60;;;;;;;23.04;100.00;101035.53;2085228;28;20323;-66
2023/07/21 03:42:18;;;;;;;9.30;7.00;;;;;;;23.07;100.00;101048.63;2081422;28;20219;-67
2023/07/21 03:43:19;;;;;;;9.70;6.70;;;;;;;23.00;100.00;101026.50;2081324;28;20181;-66
2023/07/21 03:44:20;;;;;;;9.37;6.60;;;;;;;23.00;100.00;101020.84;2081597;28;20562;-66
2023/07/21 03:45:21;;;;;;;11.00;7.30;;;;;;;22.98;100.00;101023.41;2081345;28;20260;-66
2023/07/21 03:46:22;;;;;;;8.97;6.43;;;;;;;23.15;100.00;101051.72;2081483;28;20642;-66
2023/07/21 03:47:23;;;;;;;18.03;7.30;;;;;;;23.17;100.00;101052.78;2081578;28;20259;-66
2023/07/21 03:48:24;;;;;;;19.80;8.67;;;;;;;23.07;100.00;101030.88;2081603;28;20180;-66
2023/07/21 03:49:25;;;;;;;13.57;7.70;;;;;;;23.16;100.00;101054.06;2081387;28;20258;-66
2023/07/21 03:50:28;;;;;;;11.40;7.70;;;;;;;23.24;100.00;101054.38;2081382;28;20177;-67
2023/07/21 03:51:28;;;;;;;15.07;7.93;;;;;;;23.26;100.00;101057.44;2081346;28;20185;-66
2023/07/21 03:52:29;;;;;;;14.67;7.77;;;;;;;22.55;100.00;100944.88;2081429;28;20203;-66
2023/07/21 03:53:29;;;;;;;14.80;7.67;;;;;;;23.31;100.00;101057.47;2081273;28;20214;-67
2023/07/21 03:54:30;;;;;;;15.23;7.37;;;;;;;23.33;100.00;101062.63;2081495;28;20189;-66
2023/07/21 03:55:30;;;;;;;14.13;7.17;;;;;;;23.32;100.00;101058.25;2081447;28;20181;-66
2023/07/21 03:56:30;;;;;;;14.03;7.60;;;;;;;23.31;100.00;101065.19;2074558;28;20247;-66
2023/07/21 03:57:32;;;;;;;13.90;7.10;;;;;;;23.31;100.00;101057.47;2078900;28;20268;-66
2023/07/21 03:58:33;;;;;;;12.00;7.10;;;;;;;22.80;100.00;100981.47;2081400;28;20713;-66
2023/07/21 03:59:33;;;;;;;16.53;7.43;;;;;;;23.41;100.00;101063.66;2081134;28;20638;-67
2023/07/21 04:00:35;;;;;;;11.47;7.90;;;;;;;23.44;100.00;101066.25;2081074;28;20173;-66
2023/07/21 04:01:35;;;;;;;17.87;8.30;;;;;;;23.28;100.00;101040.78;2081333;28;20189;-66
2023/07/21 04:02:36;;;;;;;17.83;7.80;;;;;;;23.43;100.00;101061.88;2081269;28;20239;-67
2023/07/21 04:03:36;;;;;;;15.17;7.30;;;;;;;23.47;100.00;101059.56;2081422;28;20188;-66
2023/07/21 04:04:37;;;;;;;12.07;8.07;;;;;;;23.49;100.00;101064.72;2087428;28;20261;-66
2023/07/21 04:05:37;;;;;;;14.67;7.63;;;;;;;23.49;100.00;101059.81;2079691;28;20189;-67
2023/07/21 04:06:38;;;;;;;9.87;7.30;;;;;;;23.53;100.00;101065.22;2073287;28;20678;-66
2023/07/21 04:07:38;;;;;;;8.80;7.13;;;;;;;23.42;100.00;101043.38;2074711;28;20177;-67
2023/07/21 04:08:40;;;;;;;10.87;7.40;;;;;;;23.59;100.00;101063.97;2081398;28;20177;-66
2023/07/21 04:09:41;;;;;;;10.50;7.60;;;;;;;23.22;100.00;101017.34;2073414;28;20272;-66
2023/07/21 04:10:41;;;;;;;11.00;7.60;;;;;;;23.63;100.00;101070.16;2086441;28;20203;-66
2023/07/21 04:11:42;;;;;;;10.80;7.40;;;;;;;23.18;100.00;101009.09;2089653;28;20183;-67
2023/07/21 04:12:42;;;;;;;9.37;6.80;;;;;;;23.26;100.00;101006.56;2083390;28;20250;-67
2023/07/21 04:13:43;;;;;;;10.83;7.40;;;;;;;23.66;100.00;101059.88;2075843;28;20250;-67
2023/07/21 04:14:43;;;;;;;13.77;6.63;;;;;;;23.75;100.00;101073.78;2081374;28;20181;-66
2023/07/21 04:15:49;;;;;;;8.93;6.67;;;;;;;23.74;100.00;101075.81;2081376;28;20181;-67
2023/07/21 04:16:49;;;;;;;9.23;7.10;;;;;;;23.79;100.00;101077.88;2089441;28;20652;-66
2023/07/21 04:17:49;;;;;;;9.83;6.53;;;;;;;23.77;100.00;101074.81;2089571;28;20267;-67
2023/07/21 04:18:50;;;;;;;10.07;6.63;;;;;;;23.81;100.00;101071.72;2083588;28;20212;-68
2023/07/21 04:19:50;;;;;;;12.20;7.03;;;;;;;23.54;100.00;101025.13;2081368;28;20227;-66
2023/07/21 04:20:51;;;;;;;9.57;6.23;;;;;;;23.87;100.00;101075.31;2080973;28;20169;-67
2023/07/21 04:21:54;;;;;;;12.87;7.10;;;;;;;23.94;100.00;101069.19;2081301;28;20183;-66
2023/07/21 04:22:55;;;;;;;8.53;6.87;;;;;;;23.95;100.00;101065.84;2081365;28;20563;-67
2023/07/21 04:23:55;;;;;;;10.50;7.30;;;;;;;23.97;100.00;101074.59;2081105;28;20189;-66
2023/07/21 04:24:56;;;;;;;11.50;7.40;;;;;;;24.00;100.00;101069.97;2081162;28;20292;-66
2023/07/21 04:25:56;;;;;;;10.97;6.73;;;;;;;23.55;100.00;100998.38;2081283;28;20247;-66
2023/07/21 04:26:56;;;;;;;11.33;6.70;;;;;;;24.07;100.00;101073.06;2080904;28;20193;-67
2023/07/21 04:27:57;;;;;;;9.60;6.63;;;;;;;24.08;100.00;101071.78;2081108;28;20180;-66
2023/07/21 04:28:57;;;;;;;10.37;6.03;;;;;;;24.11;100.00;101072.81;2081306;28;20177;-66
2023/07/21 04:29:59;;;;;;;12.13;6.77;;;;;;;24.12;100.00;101069.47;2081376;28;20537;-66
2023/07/21 04:30:59;;;;;;;11.87;6.60;;;;;;;24.15;100.00;101070.50;2080626;28;20268;-66
2023/07/21 04:32:00;;;;;;;9.97;6.43;;;;;;;24.19;100.00;101079.47;2080400;28;20600;-67
2023/07/21 04:33:00;;;;;;;8.97;6.20;;;;;;;24.22;100.00;101084.91;2081240;28;20661;-66
2023/07/21 04:34:01;;;;;;;11.17;6.70;;;;;;;24.10;100.00;101080.50;2078416;28;20608;-66
2023/07/21 04:35:03;;;;;;;10.97;6.50;;;;;;;24.22;100.00;101072.78;2074510;28;20181;-66
2023/07/21 04:36:04;;;;;;;11.70;6.87;;;;;;;24.22;100.00;101082.06;2089517;28;20490;-66
2023/07/21 04:37:09;;;;;;;10.33;6.50;;;;;;;24.24;100.00;101082.31;2089513;28;20173;-67
2023/07/21 04:38:09;;;;;;;10.67;6.60;;;;;;;24.17;100.00;101074.34;2082102;28;20364;-67
2023/07/21 04:39:10;;;;;;;9.77;6.37;;;;;;;24.25;100.00;101081.03;2081693;28;20192;-67
2023/07/21 04:40:11;;;;;;;8.73;6.30;;;;;;;24.33;100.00;101081.28;2079673;28;20173;-66
2023/07/21 04:41:13;;;;;;;9.80;6.73;;;;;;;24.30;100.00;101080.25;2082423;28;23147;-66
2023/07/21 04:42:13;;;;;;;11.80;6.70;;;;;;;24.40;100.00;101087.19;2082692;28;20174;-66